Time;durP1;ratioP1;P1;durP2;ratioP2;P2;SDS_P1;SDS_P2;PMS_P1;PMS_P2;Temp;Humidity;BMP_temperature;BMP_pressure;BME280_temperature;BME280_humidity;BME280_pressure;Samples;Min_cycle;Max_cycle;Signal;HPM_P1;HPM_P2
2022/11/29 00:03:04;;;;;;;33.60;17.70;;;;;;;0.49;83.17;100378.89;209913;1301;140818;-68
2022/11/29 00:08:08;;;;;;;37.80;20.80;;;;;;;0.43;83.47;100380.19;210142;1300;140968;-63
2022/11/29 00:13:11;;;;;;;30.90;16.70;;;;;;;0.38;83.98;100378.41;209935;1295;140812;-65
2022/11/29 00:18:14;;;;;;;28.20;18.30;;;;;;;0.41;83.56;100379.48;209870;1292;140784;-64
2022/11/29 00:23:18;;;;;;;25.20;14.60;;;;;;;0.36;83.59;100380.20;209960;1296;141330;-64
2022/11/29 00:28:21;;;;;;;31.90;18.10;;;;;;;0.27;83.58;100377.17;210063;1293;140977;-67
2022/11/29 00:33:25;;;;;;;30.10;17.20;;;;;;;0.24;83.82;100377.67;210052;1291;140572;-65
2022/11/29 00:38:29;;;;;;;30.30;16.50;;;;;;;0.21;84.05;100378.86;209867;1303;140404;-64
2022/11/29 00:43:32;;;;;;;34.90;17.60;;;;;;;0.19;84.06;100378.88;209847;1296;140269;-64
2022/11/29 00:48:36;;;;;;;31.00;14.20;;;;;;;0.21;84.16;100379.70;209904;1297;142462;-65
2022/11/29 00:53:39;;;;;;;34.60;18.20;;;;;;;0.21;84.33;100377.33;210082;1297;140874;-66
2022/11/29 00:58:43;;;;;;;22.80;11.80;;;;;;;0.29;84.19;100375.65;209857;1290;140601;-65
2022/11/29 01:03:47;;;;;;;31.10;16.50;;;;;;;0.28;84.11;100370.00;209892;1297;141626;-63
2022/11/29 01:08:50;;;;;;;37.30;19.20;;;;;;;0.27;84.25;100367.99;209865;1288;140728;-67
2022/11/29 01:13:56;;;;;;;29.30;14.80;;;;;;;0.24;84.11;100370.76;210016;1290;140343;-65
2022/11/29 01:19:00;;;;;;;28.90;15.00;;;;;;;0.26;84.25;100369.79;209582;1298;139813;-66
2022/11/29 01:24:04;;;;;;;30.90;15.50;;;;;;;0.26;84.21;100365.98;210043;1297;141510;-65
2022/11/29 01:29:11;;;;;;;28.90;16.00;;;;;;;0.23;84.51;100363.17;209955;1294;142133;-66
2022/11/29 01:34:15;;;;;;;25.60;14.50;;;;;;;0.16;84.28;100363.26;209873;1297;161239;-65
2022/11/29 01:39:18;;;;;;;26.70;15.80;;;;;;;0.16;84.51;100363.70;209821;1297;140736;-67
2022/11/29 01:44:21;;;;;;;31.30;15.30;;;;;;;0.13;84.87;100359.61;209968;1299;141107;-65
2022/11/29 01:49:32;;;;;;;24.40;14.00;;;;;;;0.15;84.69;100360.28;209921;1297;141480;-66
2022/11/29 01:54:42;;;;;;;22.90;13.70;;;;;;;0.20;84.72;100364.77;209997;1288;141204;-66
2022/11/29 01:59:51;;;;;;;31.30;14.50;;;;;;;0.22;84.84;100362.91;210064;1297;140480;-67
2022/11/29 02:04:56;;;;;;;;;;;;;;;0.23;84.69;100363.25;210094;1294;141011;-67
2022/11/29 02:10:01;;;;;;;36.60;18.60;;;;;;;0.19;84.65;100363.90;210634;1290;128634;-67
2022/11/29 02:15:17;;;;;;;65.20;23.90;;;;;;;0.14;84.54;100361.28;209953;1297;140411;-67
2022/11/29 02:21:02;;;;;;;32.00;17.10;;;;;;;0.10;85.11;100360.91;209902;1296;141491;-66
2022/11/29 02:26:18;;;;;;;30.20;17.40;;;;;;;0.11;85.07;100360.68;209824;1296;140437;-66
2022/11/29 02:31:50;;;;;;;35.00;20.30;;;;;;;0.11;84.85;100365.34;209998;1288;140870;-65
2022/11/29 02:37:08;;;;;;;30.90;15.40;;;;;;;0.12;85.03;100363.35;209694;1300;141202;-66
2022/11/29 02:42:59;;;;;;;28.30;14.90;;;;;;;0.15;84.71;100368.52;210013;1295;140592;-65
2022/11/29 02:48:24;;;;;;;33.20;16.00;;;;;;;0.13;84.80;100370.95;210193;1287;139873;-65
2022/11/29 02:53:40;;;;;;;36.40;19.80;;;;;;;0.11;84.60;100376.94;210085;1295;141667;-65
2022/11/29 02:58:53;;;;;;;26.00;16.20;;;;;;;0.11;85.14;100382.14;209778;1290;140381;-64
2022/11/29 03:04:05;;;;;;;26.30;15.00;;;;;;;0.10;84.70;100378.38;209217;1296;140140;-66
2022/11/29 03:09:37;;;;;;;36.10;17.10;;;;;;;0.06;85.14;100378.82;209846;1301;141080;-64
2022/11/29 03:14:56;;;;;;;32.00;16.00;;;;;;;0.09;85.23;100379.38;210207;1295;140945;-64
2022/11/29 03:20:05;;;;;;;34.50;16.60;;;;;;;0.12;85.23;100383.23;210169;1297;140548;-65
2022/11/29 03:25:17;;;;;;;26.50;15.40;;;;;;;0.18;85.14;100385.48;209121;1303;141688;-65
2022/11/29 03:30:23;;;;;;;33.40;14.00;;;;;;;0.09;84.70;100381.96;210096;1298;140686;-65
2022/11/29 03:35:42;;;;;;;27.30;12.90;;;;;;;0.14;85.32;100380.66;210152;1295;141451;-67
2022/11/29 03:41:18;;;;;;;35.90;19.50;;;;;;;0.19;85.13;100382.25;209939;1290;141280;-67
2022/11/29 03:46:45;;;;;;;24.30;13.30;;;;;;;0.25;84.97;100387.91;207575;1281;248467;-65
2022/11/29 03:52:07;;;;;;;34.50;17.00;;;;;;;0.17;84.50;100393.46;210065;1297;139850;-66
2022/11/29 03:57:16;;;;;;;31.70;17.00;;;;;;;0.12;84.80;100396.60;210190;1278;143853;-65
2022/11/29 04:02:49;;;;;;;34.80;16.90;;;;;;;0.06;84.82;100405.88;210108;1291;140732;-65
2022/11/29 04:08:37;;;;;;;24.20;14.40;;;;;;;0.17;84.93;100407.08;210022;1295;140930;-66
2022/11/29 04:14:12;;;;;;;34.60;16.20;;;;;;;0.17;84.86;100411.82;210170;1296;140085;-65
2022/11/29 04:19:33;;;;;;;24.90;13.10;;;;;;;0.22;84.91;100417.44;209966;1288;140921;-65
2022/11/29 04:24:53;;;;;;;36.50;19.60;;;;;;;0.21;84.61;100423.40;210163;1297;140884;-66
2022/11/29 04:30:22;;;;;;;34.70;18.50;;;;;;;0.15;84.81;100417.73;210190;1288;140995;-66
2022/11/29 04:35:41;;;;;;;40.20;19.20;;;;;;;0.05;85.12;100425.34;210214;1288;140115;-66
2022/11/29 04:41:18;;;;;;;30.50;16.10;;;;;;;0.01;84.71;100424.07;210103;1297;140172;-66
2022/11/29 04:46:34;;;;;;;26.20;14.20;;;;;;;0.05;85.18;100434.81;210037;1295;142077;-67
2022/11/29 04:52:04;;;;;;;81.40;28.20;;;;;;;0.01;84.96;100435.54;209998;1293;140635;-67
2022/11/29 04:57:20;;;;;;;55.80;20.90;;;;;;;-0.03;85.24;100436.65;209986;1293;141069;-67
2022/11/29 05:02:31;;;;;;;33.20;19.00;;;;;;;-0.05;85.17;100443.19;210197;1295;141304;-66
2022/11/29 05:07:44;;;;;;;27.60;14.90;;;;;;;-0.11;84.98;100445.48;207712;1281;141181;-64
2022/11/29 05:13:09;;;;;;;33.50;16.60;;;;;;;-0.12;85.13;100449.76;210097;1294;140826;-66
2022/11/29 05:18:22;;;;;;;29.90;15.60;;;;;;;-0.15;85.32;100454.94;210115;1288;140731;-68
2022/11/29 05:23:38;;;;;;;34.80;16.60;;;;;;;-0.18;85.45;100458.93;210096;1288;150801;-69
2022/11/29 05:29:02;;;;;;;22.30;12.50;;;;;;;-0.16;85.63;100464.98;210145;1288;141259;-68
2022/11/29 05:34:15;;;;;;;33.70;21.50;;;;;;;-0.03;85.59;100469.02;207830;1297;141841;-68
2022/11/29 05:40:02;;;;;;;32.10;14.20;;;;;;;0.09;85.67;100475.09;207646;1287;139739;-66
2022/11/29 05:45:36;;;;;;;25.10;14.40;;;;;;;0.15;85.66;100481.70;210083;1280;140818;-68
2022/11/29 05:50:46;;;;;;;45.40;19.70;;;;;;;0.14;85.38;100487.62;210015;1287;140327;-69
2022/11/29 05:56:32;;;;;;;31.90;15.90;;;;;;;0.18;85.38;100493.51;210174;1294;142079;-68
2022/11/29 06:02:05;;;;;;;31.90;15.20;;;;;;;0.17;85.57;100497.65;210155;1301;249448;-68
2022/11/29 06:07:21;;;;;;;33.20;17.90;;;;;;;0.17;85.13;100497.56;209967;1294;141426;-69
2022/11/29 06:12:29;;;;;;;25.10;15.50;;;;;;;0.13;85.26;100505.18;210044;1298;141188;-68
2022/11/29 06:18:05;;;;;;;26.00;16.60;;;;;;;0.18;85.33;100508.87;210129;1297;141248;-68
2022/11/29 06:23:33;;;;;;;30.40;16.50;;;;;;;0.09;85.03;100515.83;210141;1298;140579;-66
2022/11/29 06:29:11;;;;;;;31.20;17.90;;;;;;;0.02;84.85;100520.27;210192;1294;141681;-68
2022/11/29 06:34:37;;;;;;;26.30;15.10;;;;;;;-0.07;85.40;100518.34;210032;1303;140280;-67
2022/11/29 06:39:41;;;;;;;29.40;16.20;;;;;;;-0.02;85.45;100526.55;210100;1302;140244;-65
2022/11/29 06:44:45;;;;;;;34.40;18.10;;;;;;;0.05;85.49;100527.77;210113;1294;140011;-66
2022/11/29 06:49:57;;;;;;;49.60;22.90;;;;;;;0.11;85.59;100528.45;210034;1280;143239;-66
2022/11/29 06:55:38;;;;;;;33.00;18.30;;;;;;;0.15;85.48;100533.07;209650;1288;142310;-64
2022/11/29 07:00:45;;;;;;;34.30;18.00;;;;;;;0.09;85.01;100536.27;210179;1296;151682;-64
2022/11/29 07:05:49;;;;;;;29.60;15.20;;;;;;;0.03;85.41;100541.40;209885;1296;141661;-64
2022/11/29 07:10:54;;;;;;;25.40;13.70;;;;;;;0.05;85.32;100543.75;210106;1295;141132;-66
2022/11/29 07:16:20;;;;;;;32.30;18.00;;;;;;;0.08;85.26;100548.08;210032;1295;139957;-64
2022/11/29 07:21:49;;;;;;;30.90;15.40;;;;;;;0.11;85.49;100550.12;209932;1291;140570;-67
2022/11/29 07:27:07;;;;;;;26.50;14.00;;;;;;;0.15;85.42;100556.02;209947;1297;140565;-67
2022/11/29 07:32:27;;;;;;;30.70;15.80;;;;;;;0.17;85.35;100558.91;209922;1295;139910;-67
2022/11/29 07:37:33;;;;;;;30.10;17.20;;;;;;;0.26;85.25;100560.71;210189;1303;141228;-68
2022/11/29 07:43:04;;;;;;;29.50;15.60;;;;;;;0.26;85.53;100567.04;209969;1295;140066;-66
2022/11/29 07:48:11;;;;;;;35.40;18.10;;;;;;;0.27;85.26;100568.49;209951;1294;140436;-63
2022/11/29 07:53:17;;;;;;;34.10;18.20;;;;;;;0.25;85.25;100570.02;210110;1294;141836;-63
2022/11/29 07:58:20;;;;;;;18.90;13.00;;;;;;;0.23;85.60;100573.42;209752;1295;141041;-64
2022/11/29 08:03:24;;;;;;;39.70;19.50;;;;;;;0.21;85.29;100573.60;209906;1297;141088;-63
2022/11/29 08:08:27;;;;;;;25.00;14.80;;;;;;;0.25;85.31;100575.88;209847;1297;140364;-68
2022/11/29 08:13:31;;;;;;;39.00;20.50;;;;;;;0.30;85.61;100575.63;210153;1290;140268;-64
2022/11/29 08:18:35;;;;;;;29.10;15.70;;;;;;;0.40;85.65;100573.55;210131;1305;140368;-62
2022/11/29 08:23:39;;;;;;;28.10;14.80;;;;;;;0.47;85.47;100575.50;210153;1297;141005;-67
2022/11/29 08:28:42;;;;;;;24.70;15.50;;;;;;;0.50;85.20;100576.20;210081;1295;140943;-68
2022/11/29 08:33:46;;;;;;;39.20;20.40;;;;;;;0.47;85.18;100570.91;210111;1297;141040;-66
2022/11/29 08:38:50;;;;;;;29.10;16.00;;;;;;;0.48;85.14;100575.05;210167;1296;140160;-67
2022/11/29 08:44:06;;;;;;;26.10;13.80;;;;;;;0.55;85.16;100579.92;209943;1303;140347;-66
2022/11/29 08:49:09;;;;;;;28.60;17.10;;;;;;;0.62;84.90;100575.59;209889;1289;140817;-65
2022/11/29 08:54:13;;;;;;;24.70;15.20;;;;;;;0.70;84.84;100574.10;209376;1295;140823;-66
2022/11/29 08:59:16;;;;;;;38.20;17.60;;;;;;;0.69;84.70;100579.08;210087;1295;140024;-66
2022/11/29 09:04:20;;;;;;;26.80;14.70;;;;;;;0.64;84.42;100582.64;208041;1302;141451;-66
2022/11/29 09:09:23;;;;;;;28.70;15.50;;;;;;;0.66;84.90;100586.33;209917;1296;140456;-65
2022/11/29 09:14:27;;;;;;;35.60;18.80;;;;;;;0.65;84.68;100583.96;209936;1297;141199;-63
2022/11/29 09:19:31;;;;;;;25.30;12.20;;;;;;;0.74;85.11;100581.69;209817;1298;224946;-66
2022/11/29 09:24:34;;;;;;;29.40;19.80;;;;;;;0.90;85.04;100584.79;209850;1300;141031;-66
2022/11/29 09:29:38;;;;;;;27.90;15.00;;;;;;;0.94;84.22;100590.55;210153;1297;142426;-63
2022/11/29 09:34:41;;;;;;;28.60;16.20;;;;;;;0.88;84.47;100587.48;210023;1297;141882;-67
2022/11/29 09:39:45;;;;;;;32.40;17.70;;;;;;;0.86;84.05;100587.84;209480;1290;141725;-65
2022/11/29 09:45:30;;;;;;;27.20;13.80;;;;;;;0.85;84.43;100587.97;210038;1290;141692;-64
2022/11/29 09:50:44;;;;;;;29.30;17.10;;;;;;;0.93;84.33;100583.95;208950;1305;142122;-63
2022/11/29 09:56:08;;;;;;;31.00;17.80;;;;;;;0.90;84.22;100582.79;209589;1302;140797;-64
2022/11/29 10:01:19;;;;;;;29.50;13.70;;;;;;;0.91;84.41;100587.36;209871;1296;140295;-63
2022/11/29 10:06:27;;;;;;;26.10;15.30;;;;;;;0.94;84.57;100582.11;209711;1301;140748;-63
2022/11/29 10:12:00;;;;;;;36.30;17.80;;;;;;;1.11;84.62;100590.13;209972;1304;140468;-64
2022/11/29 10:17:28;;;;;;;33.00;17.20;;;;;;;1.10;84.10;100586.02;209952;1297;139808;-63
2022/11/29 10:22:54;;;;;;;22.90;15.30;;;;;;;1.17;84.32;100585.82;209982;1297;141830;-67
2022/11/29 10:27:58;;;;;;;40.40;18.80;;;;;;;1.22;84.32;100583.91;210038;1297;139894;-66
2022/11/29 10:33:01;;;;;;;26.90;13.40;;;;;;;1.35;84.48;100586.78;209805;1297;140890;-68
2022/11/29 10:38:05;;;;;;;32.50;16.20;;;;;;;1.46;84.39;100581.52;209666;1300;140871;-67
2022/11/29 10:43:29;;;;;;;26.90;17.10;;;;;;;1.43;83.55;100576.92;209850;1298;141382;-71
2022/11/29 10:48:33;;;;;;;33.80;17.90;;;;;;;1.49;84.12;100573.09;209827;1302;140971;-66
2022/11/29 10:53:37;;;;;;;29.40;14.60;;;;;;;1.55;83.50;100575.11;209873;1296;140411;-67
2022/11/29 10:59:17;;;;;;;27.80;16.00;;;;;;;1.63;83.70;100577.45;209748;1298;221100;-63
2022/11/29 11:04:34;;;;;;;31.30;17.50;;;;;;;1.55;83.14;100578.27;210077;1296;219865;-66
2022/11/29 11:09:48;;;;;;;32.50;15.60;;;;;;;1.60;83.46;100576.55;210093;1298;140599;-65
2022/11/29 11:15:27;;;;;;;29.30;16.10;;;;;;;1.59;83.13;100574.50;210171;1297;140932;-66
2022/11/29 11:20:33;;;;;;;24.40;16.00;;;;;;;1.64;83.24;100569.13;209445;1298;221505;-67
2022/11/29 11:25:39;;;;;;;27.70;15.60;;;;;;;1.78;83.06;100573.36;209911;1297;141639;-67
2022/11/29 11:31:00;;;;;;;30.40;16.40;;;;;;;1.76;82.87;100578.79;207781;1295;139662;-67
2022/11/29 11:36:12;;;;;;;30.70;17.50;;;;;;;1.76;83.02;100575.52;210214;1297;139813;-65
2022/11/29 11:42:35;;;;;;;30.30;17.60;;;;;;;1.71;82.54;100578.63;209270;1292;140063;-65
2022/11/29 11:46:49;;;;;;;30.60;17.00;;;;;;;1.66;82.63;100581.48;210050;1295;141774;-66
2022/11/29 11:51:53;;;;;;;28.90;14.00;;;;;;;1.66;82.76;100577.64;209976;1292;141604;-66
2022/11/29 11:56:56;;;;;;;26.60;15.80;;;;;;;1.81;82.72;100577.59;209264;1299;140950;-65
2022/11/29 12:02:00;;;;;;;29.10;14.50;;;;;;;1.87;82.55;100575.17;210198;1293;140259;-66
2022/11/29 12:07:19;;;;;;;22.30;13.10;;;;;;;1.88;82.35;100573.95;208456;1295;141863;-66
2022/11/29 12:12:44;;;;;;;26.80;15.00;;;;;;;1.85;81.89;100578.52;210086;1303;218613;-66
2022/11/29 12:18:03;;;;;;;30.80;16.00;;;;;;;1.73;81.65;100579.77;210221;1288;140811;-66
2022/11/29 12:23:13;;;;;;;28.30;18.00;;;;;;;1.75;82.43;100578.52;210263;1292;140720;-65
2022/11/29 12:28:20;;;;;;;22.20;13.20;;;;;;;1.73;81.70;100581.52;210174;1292;142260;-66
2022/11/29 12:33:40;;;;;;;24.90;15.40;;;;;;;1.74;81.66;100580.74;210214;1296;140994;-67
2022/11/29 12:39:04;;;;;;;31.50;16.60;;;;;;;1.70;81.69;100588.30;210185;1288;150497;-66
2022/11/29 12:44:40;;;;;;;28.40;16.50;;;;;;;1.67;81.49;100586.67;210011;1300;141911;-66
2022/11/29 12:50:16;;;;;;;16.50;10.50;;;;;;;1.69;81.89;100583.86;210091;1293;245563;-65
2022/11/29 12:55:30;;;;;;;25.60;12.80;;;;;;;1.76;81.80;100587.06;210067;1296;141587;-67
2022/11/29 13:01:03;;;;;;;31.70;14.90;;;;;;;1.69;81.30;100587.91;210174;1300;141274;-65
2022/11/29 13:06:55;;;;;;;23.00;14.70;;;;;;;1.62;81.24;100593.65;210006;1297;140523;-65
2022/11/29 13:12:42;;;;;;;24.60;14.50;;;;;;;1.48;81.64;100597.39;210248;1300;141954;-66
2022/11/29 13:18:03;;;;;;;30.80;18.30;;;;;;;1.40;81.38;100600.64;210211;1300;140487;-65
2022/11/29 13:23:23;;;;;;;30.70;14.80;;;;;;;1.38;81.82;100604.67;209034;1295;139897;-65
2022/11/29 13:28:49;;;;;;;25.20;17.60;;;;;;;1.44;81.75;100609.18;208424;1304;235596;-66
2022/11/29 13:33:59;;;;;;;39.60;20.30;;;;;;;1.49;82.13;100618.34;209444;1290;140657;-65
2022/11/29 13:39:31;;;;;;;26.50;14.30;;;;;;;1.63;82.06;100624.73;210044;1300;140549;-66
2022/11/29 13:45:10;;;;;;;31.70;15.90;;;;;;;1.65;81.94;100630.48;209684;1295;159539;-66
2022/11/29 13:50:41;;;;;;;32.00;16.30;;;;;;;1.58;81.63;100634.34;210117;1296;140362;-66
2022/11/29 13:55:59;;;;;;;26.70;16.40;;;;;;;1.50;81.86;100632.02;210011;1292;140436;-66
2022/11/29 14:01:11;;;;;;;30.80;16.40;;;;;;;1.44;81.84;100634.43;210242;1295;140925;-66
2022/11/29 14:06:22;;;;;;;37.10;21.00;;;;;;;1.32;81.72;100638.58;209631;1300;141250;-66
2022/11/29 14:11:41;;;;;;;31.20;17.60;;;;;;;1.18;81.70;100633.52;209632;1293;140389;-67
2022/11/29 14:17:34;;;;;;;29.40;18.10;;;;;;;1.13;81.59;100636.30;210058;1295;140986;-66
2022/11/29 14:23:18;;;;;;;36.90;21.10;;;;;;;1.11;81.90;100636.67;209645;1300;140049;-65
2022/11/29 14:28:22;;;;;;;30.70;18.10;;;;;;;1.15;81.89;100639.30;210000;1303;141122;-66
2022/11/29 14:33:44;;;;;;;36.90;19.10;;;;;;;1.18;82.09;100637.69;209832;1303;140729;-66
2022/11/29 14:39:12;;;;;;;37.20;18.30;;;;;;;1.21;82.16;100639.20;210119;1301;140718;-66
2022/11/29 14:44:15;;;;;;;36.50;19.60;;;;;;;1.16;82.02;100646.48;210144;1295;140386;-66
2022/11/29 14:49:23;;;;;;;24.10;15.00;;;;;;;1.13;81.89;100648.55;210099;1290;140942;-66
2022/11/29 14:54:27;;;;;;;29.10;16.00;;;;;;;1.12;81.73;100648.89;210103;1295;237137;-66
2022/11/29 14:59:52;;;;;;;33.50;18.40;;;;;;;1.08;82.02;100655.06;210254;1288;142214;-67
2022/11/29 15:04:56;;;;;;;30.60;17.40;;;;;;;1.06;81.93;100653.30;210063;1297;140184;-66
2022/11/29 15:10:03;;;;;;;31.40;17.20;;;;;;;1.04;81.89;100655.91;208853;1300;140805;-65
2022/11/29 15:15:25;;;;;;;34.40;19.00;;;;;;;1.03;81.74;100658.44;209948;1294;141056;-65
2022/11/29 15:20:48;;;;;;;37.10;17.90;;;;;;;1.05;81.96;100664.45;208238;1303;141238;-66
2022/11/29 15:25:53;;;;;;;34.10;18.90;;;;;;;1.04;81.84;100665.59;210152;1297;141923;-66
2022/11/29 15:31:09;;;;;;;37.80;20.00;;;;;;;1.02;82.05;100673.06;209997;1297;140795;-66
2022/11/29 15:36:23;;;;;;;43.60;22.30;;;;;;;1.01;82.35;100672.52;209172;1301;140351;-66
2022/11/29 15:41:29;;;;;;;49.60;22.80;;;;;;;0.99;82.22;100676.54;210223;1297;140994;-65
2022/11/29 15:46:34;;;;;;;41.90;22.90;;;;;;;0.97;82.40;100681.44;209321;1296;230128;-67
2022/11/29 15:51:38;;;;;;;38.40;20.90;;;;;;;1.02;82.46;100690.44;209530;1286;141500;-65
2022/11/29 15:56:52;;;;;;;35.00;18.10;;;;;;;1.00;82.36;100692.89;210090;1298;141367;-65
2022/11/29 16:02:01;;;;;;;32.50;19.40;;;;;;;1.04;82.24;100693.39;210051;1288;141974;-65
2022/11/29 16:07:05;;;;;;;29.40;16.00;;;;;;;0.97;82.11;100690.36;209589;1287;140848;-66
2022/11/29 16:12:12;;;;;;;32.40;19.10;;;;;;;0.96;81.82;100689.63;210157;1295;140447;-65
2022/11/29 16:17:19;;;;;;;34.70;17.70;;;;;;;0.93;82.31;100693.90;210118;1288;142632;-65
2022/11/29 16:22:24;;;;;;;36.50;19.90;;;;;;;1.00;82.46;100691.67;210046;1298;140536;-65
2022/11/29 16:27:35;;;;;;;33.90;19.60;;;;;;;1.00;82.34;100695.81;210099;1289;142570;-66
2022/11/29 16:32:42;;;;;;;34.40;18.20;;;;;;;1.05;82.06;100698.71;209963;1295;140347;-65
2022/11/29 16:37:46;;;;;;;28.50;17.50;;;;;;;1.04;82.28;100696.15;209958;1294;141530;-65
2022/11/29 16:43:02;;;;;;;38.80;21.00;;;;;;;1.02;82.24;100700.04;210043;1294;141415;-65
2022/11/29 16:48:30;;;;;;;47.40;24.00;;;;;;;1.01;82.00;100697.82;210279;1294;141797;-65
2022/11/29 16:53:37;;;;;;;49.60;22.30;;;;;;;0.98;82.19;100699.67;209928;1296;140645;-67
2022/11/29 16:58:44;;;;;;;42.40;22.10;;;;;;;1.03;82.49;100699.12;209862;1295;140689;-67
2022/11/29 17:04:08;;;;;;;38.80;20.70;;;;;;;0.96;82.30;100704.63;210063;1302;141398;-68
2022/11/29 17:09:22;;;;;;;43.40;21.00;;;;;;;0.94;82.44;100703.04;210084;1303;150732;-68
2022/11/29 17:14:30;;;;;;;48.20;23.30;;;;;;;0.92;82.16;100702.59;208538;1281;143603;-67
2022/11/29 17:19:34;;;;;;;49.00;25.30;;;;;;;0.95;82.13;100709.25;207737;1288;139856;-65
2022/11/29 17:24:38;;;;;;;35.10;18.70;;;;;;;0.90;82.41;100708.52;210152;1280;139888;-65
2022/11/29 17:29:50;;;;;;;39.50;21.70;;;;;;;0.91;82.36;100711.84;210357;1294;140633;-65
2022/11/29 17:34:53;;;;;;;46.50;22.40;;;;;;;0.88;82.37;100714.19;209978;1294;162285;-65
2022/11/29 17:39:57;;;;;;;33.00;19.70;;;;;;;0.89;82.39;100717.64;209882;1296;140714;-67
2022/11/29 17:45:00;;;;;;;32.50;20.10;;;;;;;0.79;82.24;100724.34;209605;1288;141098;-64
2022/11/29 17:50:04;;;;;;;36.30;21.00;;;;;;;0.71;82.35;100726.90;210069;1294;141141;-65
2022/11/29 17:55:11;;;;;;;34.10;20.70;;;;;;;0.65;82.29;100725.46;210056;1294;141280;-65
2022/11/29 18:00:15;;;;;;;39.70;21.10;;;;;;;0.61;82.35;100728.84;210153;1288;141122;-65
2022/11/29 18:05:20;;;;;;;38.00;25.10;;;;;;;0.61;82.59;100732.90;210063;1301;141596;-65
2022/11/29 18:10:25;;;;;;;46.90;24.50;;;;;;;0.61;82.25;100730.80;210036;1285;141117;-65
2022/11/29 18:15:31;;;;;;;41.00;23.30;;;;;;;0.63;82.25;100730.55;209889;1287;140381;-66
2022/11/29 18:20:35;;;;;;;64.80;25.00;;;;;;;0.62;82.70;100729.07;210021;1295;139946;-65
2022/11/29 18:25:38;;;;;;;166.10;49.40;;;;;;;0.65;82.45;100734.95;210056;1284;140736;-66
2022/11/29 18:30:42;;;;;;;54.20;26.10;;;;;;;0.58;82.59;100734.08;210125;1293;140765;-66
2022/11/29 18:35:46;;;;;;;38.00;19.80;;;;;;;0.54;82.34;100737.60;210026;1295;140799;-65
2022/11/29 18:40:50;;;;;;;48.30;22.80;;;;;;;0.52;82.55;100741.48;210089;1294;141536;-65
2022/11/29 18:45:53;;;;;;;40.80;24.50;;;;;;;0.48;82.45;100752.18;210049;1297;141207;-65
2022/11/29 18:51:01;;;;;;;44.10;22.90;;;;;;;0.42;82.73;100756.98;209915;1298;142232;-67
2022/11/29 18:56:14;;;;;;;39.90;22.60;;;;;;;0.37;82.78;100762.10;209927;1296;142105;-65
2022/11/29 19:01:22;;;;;;;43.60;22.40;;;;;;;0.34;83.07;100760.79;210185;1297;140563;-66
2022/11/29 19:06:32;;;;;;;40.80;22.90;;;;;;;0.37;83.01;100762.79;210178;1291;140869;-64
2022/11/29 19:11:42;;;;;;;33.80;18.50;;;;;;;0.33;83.00;100764.58;210247;1294;142663;-65
2022/11/29 19:16:47;;;;;;;38.60;22.80;;;;;;;0.41;82.85;100769.57;209978;1293;141787;-65
2022/11/29 19:21:51;;;;;;;38.30;23.00;;;;;;;0.37;82.77;100769.80;209503;1294;140858;-66
2022/11/29 19:26:55;;;;;;;44.60;25.90;;;;;;;0.30;82.62;100772.54;210304;1288;141635;-65
2022/11/29 19:31:59;;;;;;;40.20;21.80;;;;;;;0.24;82.88;100781.02;210295;1298;140943;-66
2022/11/29 19:37:03;;;;;;;37.40;20.30;;;;;;;0.26;82.88;100783.98;209257;1295;139974;-65
2022/11/29 19:42:07;;;;;;;47.70;25.00;;;;;;;0.26;82.79;100789.55;210059;1295;141076;-66
2022/11/29 19:47:11;;;;;;;43.80;23.00;;;;;;;0.21;83.09;100789.85;209794;1296;140111;-66
2022/11/29 19:52:15;;;;;;;49.20;24.90;;;;;;;0.19;82.90;100800.65;208865;1288;142276;-65
2022/11/29 19:57:18;;;;;;;42.00;22.20;;;;;;;0.13;83.08;100804.58;209802;1297;140519;-65
2022/11/29 20:02:22;;;;;;;47.70;22.50;;;;;;;0.05;83.12;100811.79;210124;1298;140182;-66
2022/11/29 20:07:26;;;;;;;61.20;29.00;;;;;;;-0.04;83.43;100815.95;210237;1294;141412;-65
2022/11/29 20:12:32;;;;;;;50.50;29.50;;;;;;;0.04;83.75;100815.88;210089;1294;141295;-65
2022/11/29 20:17:37;;;;;;;77.30;29.70;;;;;;;0.07;83.38;100816.67;210113;1297;139351;-65
2022/11/29 20:22:43;;;;;;;66.80;32.00;;;;;;;0.07;83.24;100818.05;210060;1288;141388;-67
2022/11/29 20:27:47;;;;;;;46.50;22.70;;;;;;;-0.01;83.08;100820.88;209937;1297;153868;-68
2022/11/29 20:32:51;;;;;;;40.70;22.70;;;;;;;-0.04;83.26;100823.80;210240;1290;141397;-67
2022/11/29 20:38:32;;;;;;;57.20;27.80;;;;;;;-0.04;83.33;100819.08;210176;1295;140527;-66
2022/11/29 20:43:54;;;;;;;41.50;20.70;;;;;;;-0.03;83.49;100819.67;209682;1297;140472;-67
2022/11/29 20:48:58;;;;;;;47.00;25.10;;;;;;;-0.07;83.68;100820.77;208922;1296;141664;-67
2022/11/29 20:54:10;;;;;;;45.90;24.70;;;;;;;-0.12;83.44;100823.79;208998;1297;144133;-67
2022/11/29 20:59:14;;;;;;;42.90;21.70;;;;;;;-0.11;83.80;100821.59;210019;1296;142638;-67
2022/11/29 21:04:18;;;;;;;42.30;23.60;;;;;;;-0.08;83.98;100820.15;209897;1297;142087;-69
2022/11/29 21:09:25;;;;;;;46.20;25.80;;;;;;;-0.20;83.33;100824.70;209950;1297;141773;-67
2022/11/29 21:14:31;;;;;;;42.70;23.00;;;;;;;-0.36;83.72;100830.16;209829;1297;141009;-68
2022/11/29 21:19:34;;;;;;;48.50;25.40;;;;;;;-0.32;84.00;100827.81;208270;1287;139771;-67
2022/11/29 21:25:12;;;;;;;43.10;22.50;;;;;;;-0.32;83.95;100835.84;210011;1297;139926;-67
2022/11/29 21:30:20;;;;;;;41.90;21.10;;;;;;;-0.26;83.91;100834.54;210145;1294;140054;-70
2022/11/29 21:35:23;;;;;;;53.00;27.00;;;;;;;-0.25;84.23;100833.97;210142;1297;162865;-69
2022/11/29 21:40:27;;;;;;;62.50;32.20;;;;;;;-0.12;84.42;100833.40;208948;1287;139983;-68
2022/11/29 21:45:30;;;;;;;36.70;21.40;;;;;;;0.08;84.73;100835.60;208124;1280;140600;-67
2022/11/29 21:50:34;;;;;;;55.10;27.20;;;;;;;0.16;84.40;100836.45;209972;1295;140840;-67
2022/11/29 21:55:38;;;;;;;48.00;24.90;;;;;;;0.25;84.09;100839.29;209928;1297;141004;-67
2022/11/29 22:00:42;;;;;;;55.30;22.70;;;;;;;0.13;83.38;100847.55;210213;1296;139533;-68
2022/11/29 22:05:46;;;;;;;45.20;20.80;;;;;;;-0.21;82.84;100852.27;208953;1298;141911;-66
2022/11/29 22:11:00;;;;;;;50.10;25.10;;;;;;;-0.48;83.69;100855.70;209970;1296;140967;-67
2022/11/29 22:16:18;;;;;;;53.40;27.50;;;;;;;-0.56;83.79;100855.73;210121;1296;139961;-69
2022/11/29 22:21:21;;;;;;;41.50;18.80;;;;;;;-0.61;84.11;100858.10;209937;1303;142237;-68
2022/11/29 22:26:27;;;;;;;53.30;28.10;;;;;;;-0.54;83.89;100855.92;209993;1295;142117;-68
2022/11/29 22:31:31;;;;;;;49.90;25.30;;;;;;;-0.43;84.59;100851.45;209874;1289;140746;-68
2022/11/29 22:36:36;;;;;;;49.30;24.40;;;;;;;-0.29;84.60;100851.95;209940;1298;140767;-69
2022/11/29 22:41:40;;;;;;;41.20;19.70;;;;;;;-0.39;83.61;100850.90;209769;1300;141824;-66
2022/11/29 22:46:44;;;;;;;37.90;20.00;;;;;;;-0.52;83.87;100850.86;210188;1285;139681;-67
2022/11/29 22:51:48;;;;;;;58.80;31.70;;;;;;;-0.53;84.05;100853.36;210061;1296;140218;-66
2022/11/29 22:56:53;;;;;;;55.20;28.10;;;;;;;-0.48;84.32;100851.69;210102;1289;140602;-65
2022/11/29 23:01:57;;;;;;;50.70;23.10;;;;;;;-0.40;84.64;100847.27;209514;1294;343676;-69
2022/11/29 23:07:00;;;;;;;50.20;23.60;;;;;;;-0.26;84.37;100845.86;210026;1295;140833;-68
2022/11/29 23:12:04;;;;;;;47.60;24.80;;;;;;;-0.26;84.60;100845.91;210085;1296;139872;-66
2022/11/29 23:17:08;;;;;;;47.70;23.10;;;;;;;-0.32;84.19;100845.42;209972;1293;140677;-68
2022/11/29 23:22:11;;;;;;;44.10;21.10;;;;;;;-0.44;83.87;100845.55;209951;1303;140921;-65